Time,TemperatureF,DewpointF,PressureIn,WindDirection,WindDirectionDegrees,WindSpeedMPH,WindSpeedGustMPH,Humidity,HourlyPrecipIn,Conditions,Clouds,dailyrainin,SoftwareType,DateUTC
2013-02-24 00:00:00,42.5,42.5,29.91,WNW,292,1.6,2.9,100,0.00,,,0.46,VWS V14.01,2013-02-24 05:00:00,
2013-02-24 00:05:00,42.4,42.4,29.91,WNW,292,1.6,1.6,100,0.00,,,0.00,VWS V14.01,2013-02-24 05:05:00,
2013-02-24 00:10:00,42.2,42.2,29.91,WNW,292,0.0,1.6,100,0.00,,,0.00,VWS V14.01,2013-02-24 05:10:00,
2013-02-24 00:15:00,41.7,41.7,29.91,SSE,158,1.3,1.6,100,0.00,,,0.00,VWS V14.01,2013-02-24 05:15:00,
2013-02-24 00:20:00,41.5,41.5,29.91,WNW,292,1.1,2.5,100,0.00,,,0.00,VWS V14.01,2013-02-24 05:20:00,
2013-02-24 00:25:00,41.3,41.3,29.91,SSW,202,0.0,2.5,100,0.00,,,0.00,VWS V14.01,2013-02-24 05:25:00,
2013-02-24 00:30:00,40.9,40.9,29.91,NW,315,1.1,2.5,100,0.00,,,0.00,VWS V14.01,2013-02-24 05:30:00,
2013-02-24 00:35:00,40.0,40.0,29.91,South,180,2.2,2.2,100,0.00,,,0.00,VWS V14.01,2013-02-24 05:35:00,
2013-02-24 00:40:00,39.3,39.3,29.91,South,180,3.1,3.1,100,0.00,,,0.00,VWS V14.01,2013-02-24 05:40:00,
2013-02-24 00:45:00,39.0,39.0,29.88,SSE,158,0.0,3.1,100,0.00,,,0.00,VWS V14.01,2013-02-24 05:45:00,
2013-02-24 00:50:00,39.1,39.1,29.88,West,270,1.3,2.7,100,0.00,,,0.00,VWS V14.01,2013-02-24 05:50:00,
2013-02-24 00:55:00,39.0,39.0,29.88,South,180,0.0,2.7,100,0.00,,,0.00,VWS V14.01,2013-02-24 05:55:00,
2013-02-24 01:00:00,38.8,38.8,29.91,SSE,158,2.7,2.7,100,0.00,,,0.00,VWS V14.01,2013-02-24 06:00:00,
2013-02-24 01:05:00,38.2,38.2,29.91,SW,225,0.0,2.9,100,0.00,,,0.00,VWS V14.01,2013-02-24 06:05:00,
2013-02-24 01:10:00,38.0,38.0,29.91,SSW,202,2.0,2.9,100,0.00,,,0.00,VWS V14.01,2013-02-24 06:10:00,
2013-02-24 01:15:00,38.4,38.4,29.91,SSW,202,0.0,2.9,100,0.00,,,0.00,VWS V14.01,2013-02-24 06:15:00,
2013-02-24 01:20:00,37.9,37.9,29.91,SSW,202,0.0,0.0,100,0.00,,,0.00,VWS V14.01,2013-02-24 06:20:00,
2013-02-24 01:25:00,37.5,37.5,29.91,SSW,202,0.0,0.0,100,0.00,,,0.00,VWS V14.01,2013-02-24 06:25:00,
2013-02-24 01:30:00,34.5,34.5,29.91,South,180,0.0,0.0,100,0.00,,,0.00,VWS V14.01,2013-02-24 06:30:00,
2013-02-24 01:34:00,36.6,36.6,29.91,SSW,202,0.0,0.0,100,0.00,,,0.00,VWS V14.01,2013-02-24 06:34:00,
2013-02-24 01:39:00,36.2,36.2,29.91,SSW,202,0.0,3.1,100,0.00,,,0.00,VWS V14.01,2013-02-24 06:39:00,
2013-02-24 01:44:00,36.2,36.2,29.94,East,90,0.0,3.1,100,0.00,,,0.00,VWS V14.01,2013-02-24 06:44:00,
2013-02-24 01:45:00,33.7,33.7,29.91,South,180,0.0,0.0,100,0.00,,,0.00,VWS V14.01,2013-02-24 06:45:00,
2013-02-24 01:49:00,36.2,36.2,29.94,SSW,202,1.1,3.1,100,0.00,,,0.00,VWS V14.01,2013-02-24 06:49:00,
2013-02-24 01:54:00,36.6,36.6,29.94,WNW,292,2.2,3.1,100,0.00,,,0.00,VWS V14.01,2013-02-24 06:54:00,
2013-02-24 01:59:00,37.3,37.3,29.91,SW,225,0.0,3.1,100,0.00,,,0.00,VWS V14.01,2013-02-24 06:59:00,
2013-02-24 02:00:00,37.0,37.0,29.91,SW,225,0.0,3.1,100,0.00,,,0.00,VWS V14.01,2013-02-24 07:00:00,
2013-02-24 02:04:00,35.9,35.9,29.91,SSW,202,0.0,0.0,100,0.00,,,0.00,VWS V14.01,2013-02-24 07:04:00,
2013-02-24 02:09:00,36.4,36.4,29.91,SW,225,0.0,0.0,100,0.00,,,0.00,VWS V14.01,2013-02-24 07:09:00,
2013-02-24 02:14:00,35.9,35.9,29.91,SW,225,0.0,0.0,100,0.00,,,0.00,VWS V14.01,2013-02-24 07:14:00,
2013-02-24 02:15:00,35.3,35.3,29.91,SSE,158,0.0,0.0,100,0.00,,,0.00,VWS V14.01,2013-02-24 07:15:00,
2013-02-24 02:19:00,35.2,35.2,29.91,SSW,202,0.0,0.0,100,0.00,,,0.00,VWS V14.01,2013-02-24 07:19:00,
2013-02-24 02:24:00,35.3,35.3,29.91,SSW,202,0.0,0.0,100,0.00,,,0.00,VWS V14.01,2013-02-24 07:24:00,
2013-02-24 02:29:00,34.5,34.5,29.91,South,180,0.0,0.0,100,0.00,,,0.00,VWS V14.01,2013-02-24 07:29:00,
2013-02-24 02:30:00,34.5,34.5,29.91,South,180,0.0,0.0,100,0.00,,,0.00,VWS V14.01,2013-02-24 07:30:00,
2013-02-24 02:34:00,34.8,34.8,29.91,South,180,0.0,0.0,100,0.00,,,0.00,VWS V14.01,2013-02-24 07:34:00,
2013-02-24 02:39:00,34.6,34.6,29.91,South,180,0.0,0.0,100,0.00,,,0.00,VWS V14.01,2013-02-24 07:39:00,
2013-02-24 02:44:00,34.3,34.3,29.91,South,180,0.0,0.0,100,0.00,,,0.00,VWS V14.01,2013-02-24 07:44:00,
2013-02-24 02:45:00,33.7,33.7,29.91,South,180,0.0,0.0,100,0.00,,,0.00,VWS V14.01,2013-02-24 07:45:00,
2013-02-24 02:49:00,34.1,34.1,29.91,South,180,0.0,0.0,100,0.00,,,0.00,VWS V14.01,2013-02-24 07:49:00,
2013-02-24 02:54:00,34.1,34.1,29.91,South,180,0.0,0.0,100,0.00,,,0.00,VWS V14.01,2013-02-24 07:54:00,
2013-02-24 02:59:00,34.3,34.3,29.91,SSW,202,0.0,0.0,100,0.00,,,0.00,VWS V14.01,2013-02-24 07:59:00,
2013-02-24 03:00:00,33.7,33.7,29.91,SSW,202,0.0,0.0,100,0.00,,,0.00,VWS V14.01,2013-02-24 08:00:00,
2013-02-24 03:04:00,33.9,33.9,29.91,SSW,202,0.0,0.0,100,0.00,,,0.00,VWS V14.01,2013-02-24 08:04:00,
2013-02-24 03:09:00,33.9,33.9,29.91,South,180,0.0,0.0,100,0.00,,,0.00,VWS V14.01,2013-02-24 08:09:00,
2013-02-24 03:14:00,34.1,34.1,29.91,SSE,158,2.0,2.7,100,0.00,,,0.00,VWS V14.01,2013-02-24 08:14:00,
2013-02-24 03:15:00,33.9,33.9,29.91,SSE,158,2.0,2.7,100,0.00,,,0.00,VWS V14.01,2013-02-24 08:15:00,
2013-02-24 03:19:00,33.9,33.9,29.91,SSE,158,0.0,2.0,100,0.00,,,0.00,VWS V14.01,2013-02-24 08:19:00,
2013-02-24 03:24:00,33.4,33.4,29.91,South,180,1.3,2.0,100,0.00,,,0.00,VWS V14.01,2013-02-24 08:24:00,
2013-02-24 03:29:00,33.7,33.7,29.91,SSE,158,0.0,2.2,100,0.00,,,0.00,VWS V14.01,2013-02-24 08:29:00,
2013-02-24 03:30:00,33.7,33.7,29.91,SSE,158,0.0,2.2,100,0.00,,,0.00,VWS V14.01,2013-02-24 08:30:00,
2013-02-24 03:34:00,33.5,33.5,29.91,SSE,158,0.0,0.0,100,0.00,,,0.00,VWS V14.01,2013-02-24 08:34:00,
2013-02-24 03:39:00,33.4,33.4,29.91,SSE,158,3.4,3.4,100,0.00,,,0.46,VWS V14.01,2013-02-24 08:39:00,
2013-02-24 03:44:00,33.5,33.5,29.91,SSE,158,1.6,3.4,100,0.00,,,0.00,VWS V14.01,2013-02-24 08:44:00,
2013-02-24 03:45:00,32.8,32.8,29.91,SSE,158,1.3,3.4,100,0.00,,,0.00,VWS V14.01,2013-02-24 08:45:00,
2013-02-24 03:49:00,33.7,33.7,29.91,South,180,0.0,2.0,100,0.00,,,0.00,VWS V14.01,2013-02-24 08:49:00,
2013-02-24 03:54:00,34.1,34.1,29.91,SSE,158,2.7,2.7,100,0.00,,,0.00,VWS V14.01,2013-02-24 08:54:00,
2013-02-24 03:59:00,34.1,34.1,29.91,SSE,158,2.7,2.7,100,0.00,,,0.00,VWS V14.01,2013-02-24 08:59:00,
2013-02-24 04:00:00,34.3,34.3,29.91,SSE,158,1.6,2.7,100,0.00,,,0.00,VWS V14.01,2013-02-24 09:00:00,
2013-02-24 04:04:00,33.7,33.7,29.91,SSE,158,3.1,3.1,100,0.00,,,0.00,VWS V14.01,2013-02-24 09:04:00,
2013-02-24 04:09:00,33.9,33.9,29.91,South,180,0.0,3.1,100,0.00,,,0.00,VWS V14.01,2013-02-24 09:09:00,
2013-02-24 04:14:00,34.1,34.1,29.91,SSE,158,2.9,3.1,100,0.00,,,0.00,VWS V14.01,2013-02-24 09:14:00,
2013-02-24 04:15:00,34.1,34.1,29.91,SSW,202,2.5,3.1,100,0.00,,,0.00,VWS V14.01,2013-02-24 09:15:00,
2013-02-24 04:19:00,34.1,34.1,29.91,SSW,202,0.0,2.5,100,0.00,,,0.00,VWS V14.01,2013-02-24 09:19:00,
2013-02-24 04:24:00,33.7,33.7,29.91,SSE,158,2.0,3.4,100,0.00,,,0.00,VWS V14.01,2013-02-24 09:24:00,
2013-02-24 04:29:00,34.1,34.1,29.91,SSE,158,1.3,3.4,100,0.00,,,0.00,VWS V14.01,2013-02-24 09:29:00,
2013-02-24 04:30:00,34.1,34.1,29.91,SSE,158,1.1,3.4,100,0.00,,,0.00,VWS V14.01,2013-02-24 09:30:00,
2013-02-24 04:34:00,33.0,33.0,29.91,South,180,2.5,2.5,100,0.00,,,0.00,VWS V14.01,2013-02-24 09:34:00,
2013-02-24 04:39:00,33.5,33.5,29.91,South,180,0.0,2.5,100,0.00,,,0.00,VWS V14.01,2013-02-24 09:39:00,
2013-02-24 04:44:00,34.1,34.1,29.91,SSE,158,2.5,3.1,100,0.00,,,0.00,VWS V14.01,2013-02-24 09:44:00,
2013-02-24 04:45:00,33.7,33.7,29.91,SSE,158,3.4,4.3,100,0.00,,,0.00,VWS V14.01,2013-02-24 09:45:00,
2013-02-24 04:49:00,34.3,34.3,29.91,South,180,2.0,3.4,100,0.00,,,0.00,VWS V14.01,2013-02-24 09:49:00,
2013-02-24 04:54:00,34.8,34.8,29.91,South,180,1.3,3.4,100,0.00,,,0.00,VWS V14.01,2013-02-24 09:54:00,
2013-02-24 04:59:00,34.6,34.6,29.94,SSE,158,2.0,3.4,100,0.00,,,0.00,VWS V14.01,2013-02-24 09:59:00,
2013-02-24 05:00:00,34.1,34.1,29.94,SSE,158,2.5,3.4,100,0.00,,,0.00,VWS V14.01,2013-02-24 10:00:00,
2013-02-24 05:04:00,33.5,33.5,29.94,South,180,0.0,2.5,100,0.00,,,0.00,VWS V14.01,2013-02-24 10:04:00,
2013-02-24 05:09:00,33.4,33.4,29.94,South,180,0.0,2.5,100,0.00,,,0.00,VWS V14.01,2013-02-24 10:09:00,
2013-02-24 05:14:00,33.4,33.4,29.94,SSW,202,0.0,2.5,100,0.00,,,0.00,VWS V14.01,2013-02-24 10:14:00,
2013-02-24 05:15:00,31.2,31.2,29.94,South,180,1.3,1.3,100,0.00,,,0.00,VWS V14.01,2013-02-24 10:15:00,
2013-02-24 05:19:00,33.2,33.2,29.94,SSE,158,0.0,2.5,100,0.00,,,0.00,VWS V14.01,2013-02-24 10:19:00,
2013-02-24 05:24:00,32.5,32.5,29.94,South,180,1.1,2.5,100,0.00,,,0.00,VWS V14.01,2013-02-24 10:24:00,
2013-02-24 05:29:00,33.2,33.2,29.94,South,180,0.0,2.5,100,0.00,,,0.00,VWS V14.01,2013-02-24 10:29:00,
2013-02-24 05:30:00,33.4,33.4,29.94,South,180,0.0,2.5,100,0.00,,,0.00,VWS V14.01,2013-02-24 10:30:00,
2013-02-24 05:34:00,33.2,33.2,29.94,South,180,0.0,0.0,100,0.00,,,0.00,VWS V14.01,2013-02-24 10:34:00,
2013-02-24 05:39:00,32.7,32.7,29.94,South,180,0.0,0.0,100,0.00,,,0.00,VWS V14.01,2013-02-24 10:39:00,
2013-02-24 05:44:00,32.3,32.3,29.94,South,180,0.0,0.0,100,0.00,,,0.00,VWS V14.01,2013-02-24 10:44:00,
2013-02-24 05:45:00,31.4,31.4,29.97,South,180,0.0,2.7,100,0.00,,,15.91,VWS V14.01,2013-02-24 10:45:00,
2013-02-24 05:49:00,31.9,31.9,29.94,South,180,0.0,0.0,100,0.00,,,0.00,VWS V14.01,2013-02-24 10:49:00,
2013-02-24 05:54:00,31.4,31.4,29.94,South,180,0.0,0.0,100,0.00,,,0.00,VWS V14.01,2013-02-24 10:54:00,
2013-02-24 05:59:00,31.2,31.2,29.94,South,180,0.0,0.0,100,0.00,,,0.00,VWS V14.01,2013-02-24 10:59:00,
2013-02-24 06:00:00,31.4,31.4,29.97,South,180,0.0,3.1,100,0.00,,,15.91,VWS V14.01,2013-02-24 11:00:00,
2013-02-24 06:04:00,30.7,30.7,29.94,South,180,0.0,0.0,100,0.00,,,0.00,VWS V14.01,2013-02-24 11:04:00,
2013-02-24 06:09:00,30.7,30.7,29.94,South,180,0.0,0.0,100,0.00,,,0.00,VWS V14.01,2013-02-24 11:09:00,
2013-02-24 06:14:00,31.2,31.2,29.94,South,180,0.0,1.3,100,0.00,,,0.00,VWS V14.01,2013-02-24 11:14:00,
2013-02-24 06:15:00,31.2,31.2,29.94,South,180,1.3,1.3,100,0.00,,,0.00,VWS V14.01,2013-02-24 11:15:00,
2013-02-24 06:19:00,31.6,31.6,29.94,South,180,0.0,1.3,100,0.00,,,0.00,VWS V14.01,2013-02-24 11:19:00,
2013-02-24 06:24:00,31.4,31.4,29.94,South,180,2.7,2.7,100,0.00,,,0.00,VWS V14.01,2013-02-24 11:24:00,
2013-02-24 06:28:00,31.9,31.9,29.97,SSW,202,0.0,2.7,100,0.00,,,15.91,VWS V14.01,2013-02-24 11:28:00,
2013-02-24 06:30:00,30.7,30.7,29.97,South,180,0.0,0.0,100,0.00,,,0.00,VWS V14.01,2013-02-24 11:30:00,
2013-02-24 06:33:00,31.6,31.6,29.97,South,180,2.0,2.7,100,0.00,,,15.91,VWS V14.01,2013-02-24 11:33:00,
2013-02-24 06:38:00,31.2,31.2,29.97,South,180,0.0,2.7,100,0.00,,,15.91,VWS V14.01,2013-02-24 11:38:00,
2013-02-24 06:43:00,31.4,31.4,29.97,South,180,0.0,2.7,100,0.00,,,15.91,VWS V14.01,2013-02-24 11:43:00,
2013-02-24 06:45:00,31.4,31.4,29.97,South,180,0.0,2.7,100,0.00,,,15.91,VWS V14.01,2013-02-24 11:45:00,
2013-02-24 06:48:00,31.0,31.0,29.97,South,180,0.0,0.0,100,0.00,,,15.91,VWS V14.01,2013-02-24 11:48:00,
2013-02-24 06:53:00,31.2,31.2,29.97,South,180,2.7,2.7,100,0.00,,,15.91,VWS V14.01,2013-02-24 11:53:00,
2013-02-24 06:58:00,31.2,31.2,29.97,SSW,202,1.1,3.1,100,0.00,,,15.91,VWS V14.01,2013-02-24 11:58:00,
2013-02-24 07:00:00,31.4,31.4,29.97,South,180,0.0,3.1,100,0.00,,,15.91,VWS V14.01,2013-02-24 12:00:00,
2013-02-24 07:03:00,31.4,31.4,29.97,South,180,0.0,0.0,100,0.00,,,15.91,VWS V14.01,2013-02-24 12:03:00,
2013-02-24 07:08:00,31.2,31.2,29.97,South,180,0.0,0.0,100,0.00,,,15.91,VWS V14.01,2013-02-24 12:08:00,
2013-02-24 07:13:00,30.7,30.7,29.94,South,180,0.0,0.0,100,0.00,,,0.00,VWS V14.01,2013-02-24 12:13:00,
2013-02-24 07:15:00,30.7,30.7,29.94,South,180,0.0,0.0,100,0.00,,,0.00,VWS V14.01,2013-02-24 12:15:00,
2013-02-24 07:18:00,30.5,30.5,29.94,South,180,0.0,0.0,100,0.00,,,0.00,VWS V14.01,2013-02-24 12:18:00,
2013-02-24 07:23:00,30.7,30.7,29.94,South,180,0.0,0.0,100,0.00,,,0.00,VWS V14.01,2013-02-24 12:23:00,
2013-02-24 07:28:00,30.7,30.7,29.97,South,180,0.0,0.0,100,0.00,,,0.00,VWS V14.01,2013-02-24 12:28:00,
2013-02-24 07:30:00,30.7,30.7,29.97,South,180,0.0,0.0,100,0.00,,,0.00,VWS V14.01,2013-02-24 12:30:00,
2013-02-24 07:33:00,30.5,30.5,29.97,South,180,0.0,0.0,100,0.00,,,0.00,VWS V14.01,2013-02-24 12:33:00,
2013-02-24 07:38:00,30.3,30.3,29.97,South,180,0.0,0.0,100,0.00,,,0.00,VWS V14.01,2013-02-24 12:38:00,
2013-02-24 07:43:00,30.0,30.0,29.97,South,180,0.0,0.0,100,0.00,,,0.00,VWS V14.01,2013-02-24 12:43:00,
2013-02-24 07:45:00,30.0,30.0,29.97,South,180,0.0,0.0,100,0.00,,,0.00,VWS V14.01,2013-02-24 12:45:00,
2013-02-24 07:48:00,30.1,30.1,29.97,South,180,0.0,0.0,100,0.00,,,0.00,VWS V14.01,2013-02-24 12:48:00,
2013-02-24 07:53:00,30.3,30.3,29.97,South,180,0.0,0.0,100,0.00,,,0.00,VWS V14.01,2013-02-24 12:53:00,
2013-02-24 07:58:00,30.3,30.3,29.97,South,180,0.0,0.0,100,0.00,,,0.00,VWS V14.01,2013-02-24 12:58:00,
2013-02-24 08:00:00,30.3,30.3,29.97,South,180,0.0,0.0,100,0.00,,,0.00,VWS V14.01,2013-02-24 13:00:00,
2013-02-24 08:03:00,30.9,30.9,29.97,South,180,0.0,0.0,100,0.00,,,0.00,VWS V14.01,2013-02-24 13:03:00,
2013-02-24 08:08:00,32.3,32.3,29.97,South,180,0.0,0.0,100,0.00,,,0.00,VWS V14.01,2013-02-24 13:08:00,
2013-02-24 08:13:00,32.8,32.8,30.00,South,180,0.0,0.0,100,0.00,,,0.00,VWS V14.01,2013-02-24 13:13:00,
2013-02-24 08:15:00,33.0,33.0,30.00,South,180,0.0,0.0,100,0.00,,,0.00,VWS V14.01,2013-02-24 13:15:00,
2013-02-24 08:18:00,33.0,33.0,30.00,South,180,1.1,1.6,100,0.00,,,0.00,VWS V14.01,2013-02-24 13:18:00,
2013-02-24 08:23:00,34.1,34.1,30.00,South,180,1.6,1.6,100,0.00,,,0.00,VWS V14.01,2013-02-24 13:23:00,
2013-02-24 08:28:00,34.6,34.6,30.00,SSE,158,0.0,1.6,100,0.00,,,0.00,VWS V14.01,2013-02-24 13:28:00,
2013-02-24 08:30:00,39.1,39.1,30.03,NNW,338,1.6,2.7,100,0.00,,,0.00,VWS V14.01,2013-02-24 13:30:00,
2013-02-24 08:33:00,34.8,34.8,30.00,SSE,158,0.0,0.0,100,0.00,,,0.00,VWS V14.01,2013-02-24 13:33:00,
2013-02-24 08:38:00,34.8,34.8,30.00,SSE,158,0.0,0.0,100,0.00,,,0.00,VWS V14.01,2013-02-24 13:38:00,
2013-02-24 08:43:00,35.0,35.0,30.00,SSE,158,0.0,0.0,100,0.00,,,0.00,VWS V14.01,2013-02-24 13:43:00,
2013-02-24 08:45:00,35.0,35.0,30.00,SSE,158,0.0,0.0,100,0.00,,,0.00,VWS V14.01,2013-02-24 13:45:00,
2013-02-24 08:48:00,35.3,35.3,30.00,SSE,158,0.0,0.0,100,0.00,,,0.00,VWS V14.01,2013-02-24 13:48:00,
2013-02-24 08:53:00,35.9,35.9,30.00,East,90,1.6,2.0,100,0.00,,,0.00,VWS V14.01,2013-02-24 13:53:00,
2013-02-24 08:58:00,36.6,36.6,30.03,WNW,292,2.5,2.7,100,0.00,,,0.00,VWS V14.01,2013-02-24 13:58:00,
2013-02-24 09:00:00,36.6,36.6,30.03,WNW,292,2.0,2.7,100,0.00,,,0.00,VWS V14.01,2013-02-24 14:00:00,
2013-02-24 09:03:00,36.6,36.6,30.03,WNW,292,2.5,2.5,100,0.00,,,0.00,VWS V14.01,2013-02-24 14:03:00,
2013-02-24 09:08:00,36.8,36.8,30.03,NW,315,1.6,3.4,100,0.00,,,0.00,VWS V14.01,2013-02-24 14:08:00,
2013-02-24 09:13:00,37.3,37.3,30.03,NNW,338,1.3,3.4,100,0.00,,,0.00,VWS V14.01,2013-02-24 14:13:00,
2013-02-24 09:15:00,37.3,37.3,30.03,NNW,338,1.6,3.4,100,0.00,,,0.00,VWS V14.01,2013-02-24 14:15:00,
2013-02-24 09:18:00,37.9,37.9,30.03,NNE,22,1.1,2.2,100,0.00,,,0.00,VWS V14.01,2013-02-24 14:18:00,
2013-02-24 09:23:00,38.4,38.4,30.03,NNE,22,1.6,2.7,100,0.00,,,0.00,VWS V14.01,2013-02-24 14:23:00,
2013-02-24 09:28:00,39.0,39.0,30.03,North,0,1.1,2.7,100,0.00,,,0.00,VWS V14.01,2013-02-24 14:28:00,
2013-02-24 09:30:00,39.1,39.1,30.03,NNW,338,1.6,2.7,100,0.00,,,0.00,VWS V14.01,2013-02-24 14:30:00,
2013-02-24 09:33:00,39.5,39.5,30.03,NNE,22,1.1,2.5,100,0.00,,,0.00,VWS V14.01,2013-02-24 14:33:00,
2013-02-24 09:38:00,40.2,40.2,30.03,NW,315,2.0,2.7,100,0.00,,,0.00,VWS V14.01,2013-02-24 14:38:00,
2013-02-24 09:43:00,40.2,40.2,30.00,NNW,338,2.7,2.7,100,0.00,,,0.00,VWS V14.01,2013-02-24 14:43:00,
2013-02-24 09:45:00,40.6,40.6,30.00,North,0,1.3,2.7,100,0.00,,,0.00,VWS V14.01,2013-02-24 14:45:00,
2013-02-24 09:48:00,40.8,36.3,30.00,North,0,1.1,2.5,84,0.00,,,0.00,VWS V14.01,2013-02-24 14:48:00,
2013-02-24 09:53:00,41.5,34.8,30.00,NE,45,1.6,2.7,77,0.00,,,0.00,VWS V14.01,2013-02-24 14:53:00,
2013-02-24 09:58:00,41.8,32.4,30.00,WNW,292,3.6,3.6,69,0.00,,,0.00,VWS V14.01,2013-02-24 14:58:00,
2013-02-24 10:00:00,42.0,32.2,30.00,NNW,338,2.5,3.6,68,0.00,,,0.00,VWS V14.01,2013-02-24 15:00:00,
2013-02-24 10:03:00,42.2,32.0,30.00,WNW,292,2.5,2.7,67,0.00,,,0.00,VWS V14.01,2013-02-24 15:03:00,
2013-02-24 10:08:00,42.5,32.4,30.00,WNW,292,0.0,2.7,67,0.00,,,0.00,VWS V14.01,2013-02-24 15:08:00,
2013-02-24 10:13:00,43.1,31.8,30.00,West,270,1.6,2.7,64,0.00,,,0.00,VWS V14.01,2013-02-24 15:13:00,
2013-02-24 10:15:00,43.5,32.1,30.00,West,270,2.5,2.7,64,0.00,,,0.00,VWS V14.01,2013-02-24 15:15:00,
2013-02-24 10:18:00,44.0,32.2,30.00,East,90,1.1,2.7,63,0.00,,,0.00,VWS V14.01,2013-02-24 15:18:00,
2013-02-24 10:23:00,45.6,30.8,30.00,SSE,158,1.6,3.6,56,0.00,,,0.00,VWS V14.01,2013-02-24 15:23:00,
2013-02-24 10:28:00,46.0,31.6,30.00,NNE,22,2.0,3.6,57,0.00,,,0.00,VWS V14.01,2013-02-24 15:28:00,
2013-02-24 10:30:00,50.7,30.1,30.03,NW,315,2.7,4.7,45,0.00,,,0.00,VWS V14.01,2013-02-24 15:30:00,
2013-02-24 10:33:00,46.5,29.9,30.00,SSW,202,2.5,3.6,52,0.00,,,0.00,VWS V14.01,2013-02-24 15:33:00,
2013-02-24 10:38:00,46.7,30.0,30.00,NNW,338,1.6,3.6,52,0.00,,,0.00,VWS V14.01,2013-02-24 15:38:00,
2013-02-24 10:43:00,46.9,29.7,30.03,NNW,338,2.9,3.6,51,0.00,,,0.00,VWS V14.01,2013-02-24 15:43:00,
2013-02-24 10:45:00,46.7,29.1,30.03,WNW,292,2.2,3.6,50,0.00,,,0.00,VWS V14.01,2013-02-24 15:45:00,
2013-02-24 10:48:00,46.7,29.1,30.03,WNW,292,2.7,3.1,50,0.00,,,0.00,VWS V14.01,2013-02-24 15:48:00,
2013-02-24 10:53:00,47.2,30.0,30.03,SE,135,1.1,3.1,51,0.00,,,0.00,VWS V14.01,2013-02-24 15:53:00,
2013-02-24 10:58:00,48.1,28.9,30.00,SE,135,2.5,5.4,47,0.00,,,0.00,VWS V14.01,2013-02-24 15:58:00,
2013-02-24 11:00:00,48.1,28.4,30.00,SSE,158,1.1,5.4,46,0.00,,,0.00,VWS V14.01,2013-02-24 16:00:00,
2013-02-24 11:03:00,48.7,28.8,30.00,SSE,158,2.7,5.4,46,0.00,,,0.00,VWS V14.01,2013-02-24 16:03:00,
2013-02-24 11:08:00,49.0,28.6,30.00,South,180,2.2,5.4,45,0.00,,,0.00,VWS V14.01,2013-02-24 16:08:00,
2013-02-24 11:13:00,49.8,28.7,30.03,SE,135,1.6,5.4,44,0.00,,,0.00,VWS V14.01,2013-02-24 16:13:00,
2013-02-24 11:15:00,49.8,28.7,30.03,SSE,158,2.9,5.4,44,0.00,,,0.00,VWS V14.01,2013-02-24 16:15:00,
2013-02-24 11:18:00,49.6,28.6,30.03,SSE,158,3.1,4.3,44,0.00,,,0.00,VWS V14.01,2013-02-24 16:18:00,
2013-02-24 11:23:00,50.3,29.2,30.03,SSE,158,2.7,4.7,44,0.00,,,0.00,VWS V14.01,2013-02-24 16:23:00,
2013-02-24 11:28:00,50.7,29.0,30.03,NNW,338,2.7,4.7,43,0.00,,,0.00,VWS V14.01,2013-02-24 16:28:00,
2013-02-24 11:30:00,50.7,30.1,30.03,NW,315,2.7,4.7,45,0.00,,,0.00,VWS V14.01,2013-02-24 16:30:00,
2013-02-24 11:33:00,51.2,30.0,30.03,NW,315,2.7,2.7,44,0.00,,,0.00,VWS V14.01,2013-02-24 16:33:00,
2013-02-24 11:38:00,51.0,29.3,30.03,NNW,338,1.3,4.0,43,0.00,,,0.00,VWS V14.01,2013-02-24 16:38:00,
2013-02-24 11:43:00,51.2,30.0,30.03,SSW,202,0.0,4.0,44,0.00,,,0.00,VWS V14.01,2013-02-24 16:43:00,
2013-02-24 11:45:00,55.3,28.2,30.00,NE,45,2.0,7.4,35,0.00,,,0.00,VWS V14.01,2013-02-24 16:45:00,
2013-02-24 11:48:00,52.3,29.9,30.03,SSE,158,3.4,4.0,42,0.00,,,0.00,VWS V14.01,2013-02-24 16:48:00,
2013-02-24 11:53:00,52.3,30.5,30.03,SSW,202,0.0,4.0,43,0.00,,,0.00,VWS V14.01,2013-02-24 16:53:00,
2013-02-24 11:58:00,52.3,31.0,30.00,WNW,292,2.7,4.0,44,0.00,,,0.00,VWS V14.01,2013-02-24 16:58:00,
2013-02-24 12:00:00,52.3,30.5,30.00,WSW,248,2.7,4.0,43,0.00,,,0.00,VWS V14.01,2013-02-24 17:00:00,
2013-02-24 12:03:00,52.3,29.9,30.00,NW,315,3.8,3.8,42,0.00,,,0.00,VWS V14.01,2013-02-24 17:03:00,
2013-02-24 12:08:00,52.5,29.5,30.00,SSE,158,1.1,3.8,41,0.00,,,0.00,VWS V14.01,2013-02-24 17:08:00,
2013-02-24 12:13:00,52.6,30.2,30.00,NNW,338,0.0,3.8,42,0.00,,,0.00,VWS V14.01,2013-02-24 17:13:00,
2013-02-24 12:15:00,52.8,29.8,30.00,NNW,338,0.0,3.8,41,0.00,,,0.00,VWS V14.01,2013-02-24 17:15:00,
2013-02-24 12:18:00,53.3,29.7,30.00,SSE,158,2.9,5.6,40,0.00,,,0.00,VWS V14.01,2013-02-24 17:18:00,
2013-02-24 12:23:00,53.7,30.0,30.00,ENE,68,3.4,5.6,40,0.00,,,0.00,VWS V14.01,2013-02-24 17:23:00,
2013-02-24 12:28:00,54.4,29.4,29.97,ENE,68,1.6,5.6,38,0.00,,,0.00,VWS V14.01,2013-02-24 17:28:00,
2013-02-24 12:30:00,54.2,29.2,29.97,ESE,112,2.7,5.6,38,0.00,,,0.00,VWS V14.01,2013-02-24 17:30:00,
2013-02-24 12:33:00,54.6,28.9,29.97,NW,315,3.1,5.4,37,0.00,,,0.00,VWS V14.01,2013-02-24 17:33:00,
2013-02-24 12:38:00,55.0,27.9,29.97,NE,45,2.9,7.4,35,0.00,,,0.00,VWS V14.01,2013-02-24 17:38:00,
2013-02-24 12:43:00,55.2,25.8,30.00,WNW,292,2.7,7.4,32,0.00,,,0.00,VWS V14.01,2013-02-24 17:43:00,
2013-02-24 12:45:00,55.3,28.2,30.00,NE,45,2.0,7.4,35,0.00,,,0.00,VWS V14.01,2013-02-24 17:45:00,
2013-02-24 12:48:00,55.9,28.6,30.00,NNE,22,2.9,4.0,35,0.00,,,0.00,VWS V14.01,2013-02-24 17:48:00,
2013-02-24 12:53:00,55.5,28.3,30.00,NNW,338,3.1,5.8,35,0.00,,,0.00,VWS V14.01,2013-02-24 17:53:00,
2013-02-24 12:58:00,55.7,28.5,29.97,NNW,338,3.4,5.8,35,0.00,,,0.00,VWS V14.01,2013-02-24 17:58:00,
2013-02-24 13:00:00,55.7,28.5,29.97,NNE,22,4.9,5.8,35,0.00,,,0.00,VWS V14.01,2013-02-24 18:00:00,
2013-02-24 13:03:00,56.0,26.6,29.97,West,270,3.6,4.9,32,0.00,,,0.00,VWS V14.01,2013-02-24 18:03:00,
2013-02-24 13:08:00,55.5,28.3,29.97,NNW,338,2.5,5.6,35,0.00,,,0.00,VWS V14.01,2013-02-24 18:08:00,
2013-02-24 13:13:00,56.2,26.8,29.94,North,0,2.0,5.6,32,0.00,,,0.00,VWS V14.01,2013-02-24 18:13:00,
2013-02-24 13:15:00,56.6,28.6,29.94,WNW,292,2.2,5.6,34,0.00,,,0.00,VWS V14.01,2013-02-24 18:15:00,
2013-02-24 13:18:00,56.8,27.3,29.94,NE,45,2.7,2.7,32,0.00,,,0.00,VWS V14.01,2013-02-24 18:18:00,
2013-02-24 13:23:00,57.1,25.2,29.94,NNE,22,2.5,6.0,29,0.00,,,0.00,VWS V14.01,2013-02-24 18:23:00,
2013-02-24 13:28:00,57.5,25.5,29.97,NNW,338,3.8,6.0,29,0.00,,,0.00,VWS V14.01,2013-02-24 18:28:00,
2013-02-24 13:30:00,57.5,25.5,29.97,NNE,22,3.8,6.0,29,0.00,,,0.00,VWS V14.01,2013-02-24 18:30:00,
2013-02-24 13:33:00,57.5,25.5,29.97,NNE,22,3.8,3.8,29,0.00,,,0.00,VWS V14.01,2013-02-24 18:33:00,
2013-02-24 13:38:00,57.3,25.4,29.97,WNW,292,1.6,4.9,29,0.00,,,0.00,VWS V14.01,2013-02-24 18:38:00,
2013-02-24 13:43:00,57.5,25.5,29.97,NNE,22,4.9,5.4,29,0.00,,,0.00,VWS V14.01,2013-02-24 18:43:00,
2013-02-24 13:45:00,57.8,25.8,29.97,NNE,22,2.5,5.4,29,0.00,,,0.00,VWS V14.01,2013-02-24 18:45:00,
2013-02-24 13:48:00,58.0,26.0,29.97,SSW,202,3.8,4.0,29,0.00,,,0.00,VWS V14.01,2013-02-24 18:48:00,
2013-02-24 13:53:00,57.8,25.8,29.97,North,0,2.7,6.3,29,0.00,,,0.00,VWS V14.01,2013-02-24 18:53:00,
2013-02-24 13:58:00,58.0,26.0,29.97,SW,225,3.4,6.3,29,0.00,,,0.00,VWS V14.01,2013-02-24 18:58:00,
2013-02-24 14:00:00,58.0,26.0,29.97,NNE,22,3.8,6.3,29,0.00,,,0.00,VWS V14.01,2013-02-24 19:00:00,
2013-02-24 14:03:00,58.6,26.4,29.97,NNW,338,2.9,3.8,29,0.00,,,0.00,VWS V14.01,2013-02-24 19:03:00,
2013-02-24 14:08:00,58.0,26.0,29.97,NNW,338,4.0,5.6,29,0.00,,,0.00,VWS V14.01,2013-02-24 19:08:00,
2013-02-24 14:13:00,58.6,24.7,29.97,NNE,22,3.4,6.5,27,0.00,,,0.00,VWS V14.01,2013-02-24 19:13:00,
2013-02-24 14:15:00,58.8,24.9,29.97,NE,45,2.0,6.5,27,0.00,,,0.00,VWS V14.01,2013-02-24 19:15:00,
2013-02-24 14:18:00,58.8,24.9,29.97,NNW,338,3.4,4.3,27,0.00,,,0.00,VWS V14.01,2013-02-24 19:18:00,
2013-02-24 14:23:00,58.2,24.4,29.97,NNE,22,3.1,4.3,27,0.00,,,0.00,VWS V14.01,2013-02-24 19:23:00,
2013-02-24 14:28:00,58.8,24.9,29.97,NNW,338,3.4,6.0,27,0.00,,,0.00,VWS V14.01,2013-02-24 19:28:00,
2013-02-24 14:30:00,58.2,24.4,29.97,WNW,292,4.0,7.4,27,0.00,,,0.00,VWS V14.01,2013-02-24 19:30:00,
2013-02-24 14:33:00,58.9,25.0,29.97,ENE,68,2.7,6.0,27,0.00,,,0.00,VWS V14.01,2013-02-24 19:33:00,
2013-02-24 14:38:00,58.8,24.9,29.97,WNW,292,2.5,6.0,27,0.00,,,0.00,VWS V14.01,2013-02-24 19:38:00,
2013-02-24 14:43:00,58.4,24.6,29.97,WNW,292,2.5,6.0,27,0.00,,,0.00,VWS V14.01,2013-02-24 19:43:00,
2013-02-24 14:45:00,58.6,24.7,29.97,NNW,338,2.2,6.0,27,0.00,,,0.00,VWS V14.01,2013-02-24 19:45:00,
2013-02-24 14:48:00,58.4,24.6,29.97,WNW,292,4.3,5.4,27,0.00,,,0.00,VWS V14.01,2013-02-24 19:48:00,
2013-02-24 14:53:00,57.8,24.1,29.97,NNW,338,4.0,6.3,27,0.00,,,0.00,VWS V14.01,2013-02-24 19:53:00,
2013-02-24 14:58:00,58.2,24.4,29.97,WNW,292,4.0,6.3,27,0.00,,,0.00,VWS V14.01,2013-02-24 19:58:00,
2013-02-24 15:00:00,58.4,24.6,29.97,WNW,292,3.6,6.3,27,0.00,,,0.00,VWS V14.01,2013-02-24 20:00:00,
2013-02-24 15:03:00,58.2,24.4,29.97,NW,315,6.0,6.0,27,0.00,,,0.00,VWS V14.01,2013-02-24 20:03:00,
2013-02-24 15:08:00,58.4,24.6,29.97,NW,315,4.9,6.0,27,0.00,,,0.00,VWS V14.01,2013-02-24 20:08:00,
2013-02-24 15:13:00,58.0,24.3,29.97,West,270,2.7,6.0,27,0.00,,,0.00,VWS V14.01,2013-02-24 20:13:00,
2013-02-24 15:15:00,58.4,24.6,29.97,WNW,292,4.0,6.0,27,0.00,,,0.00,VWS V14.01,2013-02-24 20:15:00,
2013-02-24 15:18:00,58.2,24.4,29.97,WNW,292,4.0,6.0,27,0.00,,,0.00,VWS V14.01,2013-02-24 20:18:00,
2013-02-24 15:23:00,57.8,24.1,29.97,WNW,292,2.9,6.5,27,0.00,,,0.00,VWS V14.01,2013-02-24 20:23:00,
2013-02-24 15:28:00,58.2,24.4,29.97,WNW,292,2.5,7.4,27,0.00,,,0.00,VWS V14.01,2013-02-24 20:28:00,
2013-02-24 15:30:00,58.2,24.4,29.97,WNW,292,4.0,7.4,27,0.00,,,0.00,VWS V14.01,2013-02-24 20:30:00,
2013-02-24 15:33:00,57.5,23.8,29.97,WNW,292,2.5,4.7,27,0.00,,,0.00,VWS V14.01,2013-02-24 20:33:00,
2013-02-24 15:38:00,57.7,24.0,29.97,WNW,292,3.1,4.7,27,0.00,,,0.00,VWS V14.01,2013-02-24 20:38:00,
2013-02-24 15:43:00,57.7,24.0,29.97,WNW,292,0.0,4.7,27,0.00,,,0.00,VWS V14.01,2013-02-24 20:43:00,
2013-02-24 15:45:00,57.3,23.6,29.97,NW,315,5.8,6.3,27,0.00,,,0.00,VWS V14.01,2013-02-24 20:45:00,
2013-02-24 15:48:00,57.5,23.8,29.97,NW,315,2.7,6.5,27,0.00,,,0.00,VWS V14.01,2013-02-24 20:48:00,
2013-02-24 15:53:00,57.7,24.0,29.97,WNW,292,3.4,6.5,27,0.00,,,0.00,VWS V14.01,2013-02-24 20:53:00,
2013-02-24 15:58:00,57.1,23.5,29.97,WNW,292,7.4,7.4,27,0.00,,,0.00,VWS V14.01,2013-02-24 20:58:00,
2013-02-24 16:00:00,57.0,23.3,29.97,NW,315,3.4,7.4,27,0.00,,,0.00,VWS V14.01,2013-02-24 21:00:00,
2013-02-24 16:03:00,57.1,23.5,29.97,North,0,2.9,4.7,27,0.00,,,0.00,VWS V14.01,2013-02-24 21:03:00,
2013-02-24 16:08:00,57.1,23.5,29.97,WNW,292,3.4,4.7,27,0.00,,,0.00,VWS V14.01,2013-02-24 21:08:00,
2013-02-24 16:13:00,57.1,23.5,29.97,WSW,248,2.5,4.7,27,0.00,,,0.00,VWS V14.01,2013-02-24 21:13:00,
2013-02-24 16:15:00,57.1,23.5,29.97,NNW,338,2.7,4.7,27,0.00,,,0.00,VWS V14.01,2013-02-24 21:15:00,
2013-02-24 16:18:00,57.0,23.3,29.97,NW,315,2.9,4.3,27,0.00,,,0.00,VWS V14.01,2013-02-24 21:18:00,
2013-02-24 16:23:00,56.6,23.0,29.97,WNW,292,3.8,5.8,27,0.00,,,0.00,VWS V14.01,2013-02-24 21:23:00,
2013-02-24 16:28:00,56.2,22.7,29.97,NNW,338,4.3,5.8,27,0.00,,,0.00,VWS V14.01,2013-02-24 21:28:00,
2013-02-24 16:30:00,56.2,22.7,29.97,WNW,292,5.8,5.8,27,0.00,,,0.00,VWS V14.01,2013-02-24 21:30:00,
2013-02-24 16:33:00,56.2,22.7,29.97,NW,315,2.7,6.0,27,0.00,,,0.00,VWS V14.01,2013-02-24 21:33:00,
2013-02-24 16:38:00,56.2,22.7,29.97,WNW,292,2.9,6.0,27,0.00,,,0.00,VWS V14.01,2013-02-24 21:38:00,
2013-02-24 16:43:00,56.0,22.6,29.97,NW,315,2.5,6.0,27,0.00,,,0.00,VWS V14.01,2013-02-24 21:43:00,
2013-02-24 16:45:00,55.9,22.4,29.97,WSW,248,2.9,6.0,27,0.00,,,0.00,VWS V14.01,2013-02-24 21:45:00,
2013-02-24 16:48:00,55.9,22.4,29.97,South,180,2.5,2.9,27,0.00,,,0.00,VWS V14.01,2013-02-24 21:48:00,
2013-02-24 16:53:00,55.7,22.2,29.97,NNW,338,1.3,3.4,27,0.00,,,0.00,VWS V14.01,2013-02-24 21:53:00,
2013-02-24 16:58:00,55.5,22.1,29.97,WNW,292,3.1,3.4,27,0.00,,,0.00,VWS V14.01,2013-02-24 21:58:00,
2013-02-24 17:00:00,55.5,22.1,29.97,West,270,1.6,3.4,27,0.00,,,0.00,VWS V14.01,2013-02-24 22:00:00,
2013-02-24 17:03:00,55.2,21.8,29.97,NNW,338,2.2,3.6,27,0.00,,,0.00,VWS V14.01,2013-02-24 22:03:00,
2013-02-24 17:08:00,55.0,21.6,29.97,West,270,2.9,3.6,27,0.00,,,0.00,VWS V14.01,2013-02-24 22:08:00,
2013-02-24 17:13:00,54.8,21.5,29.97,WSW,248,2.2,3.6,27,0.00,,,0.00,VWS V14.01,2013-02-24 22:13:00,
2013-02-24 17:15:00,54.6,21.3,29.97,WNW,292,2.2,3.6,27,0.00,,,0.00,VWS V14.01,2013-02-24 22:15:00,
2013-02-24 17:18:00,54.6,21.3,29.97,WSW,248,2.0,4.0,27,0.00,,,0.00,VWS V14.01,2013-02-24 22:18:00,
2013-02-24 17:23:00,54.2,21.9,29.97,WSW,248,1.6,4.0,28,0.00,,,0.00,VWS V14.01,2013-02-24 22:23:00,
2013-02-24 17:28:00,53.9,21.6,29.97,SSW,202,0.0,4.0,28,0.00,,,0.00,VWS V14.01,2013-02-24 22:28:00,
2013-02-24 17:30:00,53.9,21.6,29.97,WNW,292,3.8,4.0,28,0.00,,,0.00,VWS V14.01,2013-02-24 22:30:00,
2013-02-24 17:33:00,53.9,21.6,29.97,West,270,2.5,3.8,28,0.00,,,0.00,VWS V14.01,2013-02-24 22:33:00,
2013-02-24 17:38:00,53.7,21.4,29.97,WNW,292,1.3,3.8,28,0.00,,,0.00,VWS V14.01,2013-02-24 22:38:00,
2013-02-24 17:43:00,53.2,20.9,29.94,WSW,248,2.0,3.8,28,0.00,,,0.00,VWS V14.01,2013-02-24 22:43:00,
2013-02-24 17:45:00,53.2,20.9,29.94,WSW,248,0.0,3.8,28,0.00,,,0.00,VWS V14.01,2013-02-24 22:45:00,
2013-02-24 17:48:00,52.6,20.5,29.94,SSW,202,0.0,0.0,28,0.00,,,0.00,VWS V14.01,2013-02-24 22:48:00,
2013-02-24 17:53:00,52.3,20.2,29.94,West,270,0.0,2.2,28,0.00,,,0.00,VWS V14.01,2013-02-24 22:53:00,
2013-02-24 17:58:00,52.1,20.0,29.97,SSW,202,0.0,2.2,28,0.00,,,0.00,VWS V14.01,2013-02-24 22:58:00,
2013-02-24 18:00:00,51.9,19.9,29.97,SSW,202,0.0,2.2,28,0.00,,,0.00,VWS V14.01,2013-02-24 23:00:00,
2013-02-24 18:03:00,51.4,19.4,29.97,WSW,248,0.0,0.0,28,0.00,,,0.00,VWS V14.01,2013-02-24 23:03:00,
2013-02-24 18:08:00,50.5,21.0,29.97,SSW,202,0.0,0.0,31,0.00,,,0.00,VWS V14.01,2013-02-24 23:08:00,
2013-02-24 18:13:00,49.6,20.2,29.97,WSW,248,1.3,2.0,31,0.00,,,0.00,VWS V14.01,2013-02-24 23:13:00,
2013-02-24 18:15:00,49.6,20.2,29.97,SSW,202,0.0,2.0,31,0.00,,,0.00,VWS V14.01,2013-02-24 23:15:00,
2013-02-24 18:18:00,49.6,20.2,29.97,WSW,248,0.0,0.0,31,0.00,,,0.00,VWS V14.01,2013-02-24 23:18:00,
2013-02-24 18:23:00,48.8,19.6,29.97,SSW,202,2.2,2.2,31,0.00,,,0.00,VWS V14.01,2013-02-24 23:23:00,
2013-02-24 18:28:00,48.0,18.8,29.97,SSW,202,1.6,2.9,31,0.00,,,0.00,VWS V14.01,2013-02-24 23:28:00,
2013-02-24 18:30:00,47.4,21.8,29.97,South,180,3.4,3.8,36,0.00,,,0.00,VWS V14.01,2013-02-24 23:30:00,
2013-02-24 18:33:00,46.0,25.3,29.97,SSE,158,3.4,3.6,44,0.00,,,0.00,VWS V14.01,2013-02-24 23:33:00,
2013-02-24 18:38:00,45.1,25.0,29.97,South,180,3.4,4.7,45,0.00,,,0.00,VWS V14.01,2013-02-24 23:38:00,
2013-02-24 18:43:00,44.5,24.5,30.00,SSE,158,3.4,4.7,45,0.00,,,0.00,VWS V14.01,2013-02-24 23:43:00,
2013-02-24 18:45:00,44.0,24.6,30.00,South,180,3.1,4.7,46,0.00,,,0.00,VWS V14.01,2013-02-24 23:45:00,
2013-02-24 18:48:00,44.5,24.5,30.00,SE,135,2.5,3.4,45,0.00,,,0.00,VWS V14.01,2013-02-24 23:48:00,
2013-02-24 18:53:00,44.5,24.5,30.00,SE,135,4.0,4.3,45,0.00,,,0.00,VWS V14.01,2013-02-24 23:53:00,
2013-02-24 18:58:00,43.6,24.2,30.00,SSW,202,0.0,4.3,46,0.00,,,0.00,VWS V14.01,2013-02-24 23:58:00,
2013-02-24 19:00:00,43.3,24.4,30.00,SSW,202,0.0,4.3,47,0.00,,,0.00,VWS V14.01,2013-02-25 00:00:00,
2013-02-24 19:03:00,43.1,24.8,30.00,SSW,202,2.5,2.5,48,0.00,,,0.00,VWS V14.01,2013-02-25 00:03:00,
2013-02-24 19:08:00,42.7,25.4,30.00,South,180,2.7,3.1,50,0.00,,,0.00,VWS V14.01,2013-02-25 00:08:00,
2013-02-24 19:13:00,42.2,24.9,30.03,South,180,2.0,3.6,50,0.00,,,0.00,VWS V14.01,2013-02-25 00:13:00,
2013-02-24 19:15:00,41.8,25.5,30.03,South,180,3.6,3.8,52,0.00,,,0.00,VWS V14.01,2013-02-25 00:15:00,
2013-02-24 19:18:00,40.8,25.0,30.03,South,180,2.5,4.0,53,0.00,,,0.00,VWS V14.01,2013-02-25 00:18:00,
2013-02-24 19:23:00,40.8,25.4,30.03,SSE,158,2.7,4.0,54,0.00,,,0.00,VWS V14.01,2013-02-25 00:23:00,
2013-02-24 19:28:00,40.2,25.4,30.03,SSE,158,2.9,4.0,55,0.00,,,0.00,VWS V14.01,2013-02-25 00:28:00,
2013-02-24 19:30:00,40.9,25.6,30.03,South,180,2.9,4.0,54,0.00,,,0.00,VWS V14.01,2013-02-25 00:30:00,
2013-02-24 19:33:00,40.4,25.1,30.03,South,180,2.5,3.6,54,0.00,,,0.00,VWS V14.01,2013-02-25 00:33:00,
2013-02-24 19:38:00,39.3,24.9,30.03,SSE,158,3.6,3.6,56,0.00,,,0.00,VWS V14.01,2013-02-25 00:38:00,
2013-02-24 19:43:00,37.7,24.7,30.03,South,180,3.6,3.6,59,0.00,,,0.00,VWS V14.01,2013-02-25 00:43:00,
2013-02-24 19:45:00,37.7,25.1,30.03,SSE,158,2.2,3.6,60,0.00,,,0.00,VWS V14.01,2013-02-25 00:45:00,
2013-02-24 19:48:00,38.0,25.0,30.03,SSW,202,0.0,2.2,59,0.00,,,0.00,VWS V14.01,2013-02-25 00:48:00,
2013-02-24 19:53:00,37.5,24.9,30.03,SSW,202,1.1,2.2,60,0.00,,,0.00,VWS V14.01,2013-02-25 00:53:00,
2013-02-24 19:58:00,37.3,25.1,30.03,South,180,0.0,2.7,61,0.00,,,0.00,VWS V14.01,2013-02-25 00:58:00,
2013-02-24 20:00:00,37.3,25.1,30.03,South,180,0.0,2.7,61,0.00,,,0.00,VWS V14.01,2013-02-25 01:00:00,
2013-02-24 20:03:00,37.2,25.4,30.03,South,180,0.0,0.0,62,0.00,,,0.00,VWS V14.01,2013-02-25 01:03:00,
2013-02-24 20:08:00,36.8,25.0,30.03,SSE,158,2.2,2.9,62,0.00,,,0.00,VWS V14.01,2013-02-25 01:08:00,
2013-02-24 20:13:00,35.3,24.8,30.03,SSE,158,2.7,3.6,65,0.00,,,0.00,VWS V14.01,2013-02-25 01:13:00,
2013-02-24 20:15:00,35.3,25.1,30.03,SSE,158,2.7,3.6,66,0.00,,,0.00,VWS V14.01,2013-02-25 01:15:00,
2013-02-24 20:18:00,35.2,25.3,30.03,SSE,158,2.5,3.1,67,0.00,,,0.00,VWS V14.01,2013-02-25 01:18:00,
2013-02-24 20:23:00,35.3,25.9,30.03,South,180,1.6,3.1,68,0.00,,,0.00,VWS V14.01,2013-02-25 01:23:00,
2013-02-24 20:28:00,35.5,25.7,30.03,SSW,202,0.0,3.1,67,0.00,,,0.00,VWS V14.01,2013-02-25 01:28:00,
2013-02-24 20:30:00,35.5,25.7,30.03,SSW,202,0.0,3.1,67,0.00,,,0.00,VWS V14.01,2013-02-25 01:30:00,
2013-02-24 20:33:00,35.0,25.5,30.03,SSW,202,0.0,0.0,68,0.00,,,0.00,VWS V14.01,2013-02-25 01:33:00,
2013-02-24 20:38:00,34.1,25.7,30.03,SSE,158,1.6,2.5,71,0.00,,,0.00,VWS V14.01,2013-02-25 01:38:00,
2013-02-24 20:43:00,34.8,26.0,30.03,SSW,202,1.1,2.5,70,0.00,,,0.00,VWS V14.01,2013-02-25 01:43:00,
2013-02-24 20:45:00,34.8,25.7,30.03,SSW,202,0.0,2.5,69,0.00,,,0.00,VWS V14.01,2013-02-25 01:45:00,
2013-02-24 20:48:00,34.6,25.9,30.03,SSW,202,0.0,0.0,70,0.00,,,0.00,VWS V14.01,2013-02-25 01:48:00,
2013-02-24 20:53:00,34.3,25.5,30.03,SSW,202,0.0,0.0,70,0.00,,,0.00,VWS V14.01,2013-02-25 01:53:00,
2013-02-24 20:58:00,34.1,26.0,30.03,SSW,202,0.9,1.3,72,0.00,,,0.00,VWS V14.01,2013-02-25 01:58:00,
2013-02-24 21:00:00,34.1,25.7,30.03,SSW,202,0.0,1.3,71,0.00,,,0.00,VWS V14.01,2013-02-25 02:00:00,
2013-02-24 21:03:00,34.3,25.9,30.03,SSW,202,0.0,0.0,71,0.00,,,0.00,VWS V14.01,2013-02-25 02:03:00,
2013-02-24 21:08:00,33.5,25.2,30.03,SSE,158,0.0,0.0,71,0.00,,,0.00,VWS V14.01,2013-02-25 02:08:00,
2013-02-24 21:13:00,33.0,25.3,30.03,SSE,158,0.0,0.0,73,0.00,,,0.00,VWS V14.01,2013-02-25 02:13:00,
2013-02-24 21:15:00,32.8,25.5,30.03,SSE,158,0.0,0.0,74,0.00,,,0.00,VWS V14.01,2013-02-25 02:15:00,
2013-02-24 21:18:00,32.7,25.6,30.03,South,180,2.9,2.9,75,0.00,,,0.00,VWS V14.01,2013-02-25 02:18:00,
2013-02-24 21:23:00,32.5,25.4,30.03,SSE,158,1.6,4.0,75,0.00,,,0.00,VWS V14.01,2013-02-25 02:23:00,
2013-02-24 21:28:00,32.7,26.2,30.03,South,180,2.5,4.0,77,0.00,,,0.00,VWS V14.01,2013-02-25 02:28:00,
2013-02-24 21:30:00,30.3,24.9,30.03,SE,135,0.0,1.3,80,0.00,,,0.00,VWS V14.01,2013-02-25 02:30:00,
2013-02-24 21:33:00,32.7,26.6,30.03,South,180,1.1,4.0,78,0.00,,,0.00,VWS V14.01,2013-02-25 02:33:00,
2013-02-24 21:38:00,32.8,26.1,30.03,SSW,202,0.0,4.0,76,0.00,,,0.00,VWS V14.01,2013-02-25 02:38:00,
2013-02-24 21:43:00,32.7,25.9,30.03,SSW,202,0.0,4.0,76,0.00,,,0.00,VWS V14.01,2013-02-25 02:43:00,
2013-02-24 21:45:00,32.8,25.8,30.03,SSW,202,0.0,4.0,75,0.00,,,0.00,VWS V14.01,2013-02-25 02:45:00,
2013-02-24 21:48:00,32.5,25.4,30.03,South,180,0.0,0.0,75,0.00,,,0.00,VWS V14.01,2013-02-25 02:48:00,
2013-02-24 21:53:00,32.1,24.8,30.03,South,180,0.0,0.0,74,0.00,,,0.00,VWS V14.01,2013-02-25 02:53:00,
2013-02-24 21:58:00,31.6,24.9,30.06,South,180,0.0,0.0,76,0.00,,,0.00,VWS V14.01,2013-02-25 02:58:00,
2013-02-24 22:00:00,31.4,25.0,30.06,South,180,0.0,0.0,77,0.00,,,0.00,VWS V14.01,2013-02-25 03:00:00,
2013-02-24 22:03:00,31.4,25.3,30.06,SSW,202,0.0,1.3,78,0.00,,,0.00,VWS V14.01,2013-02-25 03:03:00,
2013-02-24 22:08:00,31.4,25.6,30.06,SSW,202,0.0,1.3,79,0.00,,,0.00,VWS V14.01,2013-02-25 03:08:00,
2013-02-24 22:13:00,31.4,25.3,30.03,SSW,202,0.0,1.3,78,0.00,,,0.00,VWS V14.01,2013-02-25 03:13:00,
2013-02-24 22:15:00,29.0,24.5,30.03,SSW,202,0.0,1.3,83,0.00,,,0.00,VWS V14.01,2013-02-25 03:15:00,
2013-02-24 22:18:00,31.0,24.7,30.03,SSW,202,0.0,1.3,77,0.00,,,0.00,VWS V14.01,2013-02-25 03:18:00,
2013-02-24 22:22:00,30.7,25.2,30.03,SSW,202,0.0,1.3,80,0.00,,,0.00,VWS V14.01,2013-02-25 03:22:00,
2013-02-24 22:27:00,30.7,25.5,30.03,SE,135,0.0,1.3,81,0.00,,,0.00,VWS V14.01,2013-02-25 03:27:00,
2013-02-24 22:30:00,30.3,24.9,30.03,SE,135,0.0,1.3,80,0.00,,,0.00,VWS V14.01,2013-02-25 03:30:00,
2013-02-24 22:32:00,30.1,24.7,30.03,SSW,202,0.0,0.0,80,0.00,,,0.00,VWS V14.01,2013-02-25 03:32:00,
2013-02-24 22:37:00,29.8,25.2,30.03,South,180,0.0,0.0,83,0.00,,,0.00,VWS V14.01,2013-02-25 03:37:00,
2013-02-24 22:42:00,29.8,26.1,30.03,South,180,2.5,2.5,86,0.00,,,0.00,VWS V14.01,2013-02-25 03:42:00,
2013-02-24 22:47:00,30.9,27.7,30.03,South,180,1.6,2.5,88,0.00,,,0.00,VWS V14.01,2013-02-25 03:47:00,
2013-02-24 22:52:00,30.3,26.1,30.03,South,180,0.0,2.5,84,0.00,,,0.00,VWS V14.01,2013-02-25 03:52:00,
2013-02-24 22:57:00,29.8,25.2,30.03,South,180,2.5,2.5,83,0.00,,,0.00,VWS V14.01,2013-02-25 03:57:00,
2013-02-24 23:00:00,29.8,25.5,30.03,SSW,202,1.3,2.5,84,0.00,,,0.00,VWS V14.01,2013-02-25 04:00:00,
2013-02-24 23:02:00,29.8,25.5,30.03,SSW,202,0.0,1.3,84,0.00,,,0.00,VWS V14.01,2013-02-25 04:02:00,
2013-02-24 23:07:00,29.8,25.2,30.03,SSW,202,0.0,1.3,83,0.00,,,0.00,VWS V14.01,2013-02-25 04:07:00,
2013-02-24 23:12:00,29.2,24.4,30.03,SSE,158,0.0,1.3,82,0.00,,,0.00,VWS V14.01,2013-02-25 04:12:00,
2013-02-24 23:15:00,29.0,24.5,30.03,SSW,202,0.0,1.3,83,0.00,,,0.00,VWS V14.01,2013-02-25 04:15:00,
2013-02-24 23:17:00,29.0,24.8,30.03,SSW,202,0.0,0.0,84,0.00,,,0.00,VWS V14.01,2013-02-25 04:17:00,
2013-02-24 23:22:00,28.9,25.2,30.03,SSE,158,0.0,0.0,86,0.00,,,0.00,VWS V14.01,2013-02-25 04:22:00,
2013-02-24 23:27:00,28.3,24.4,30.03,SSE,158,0.0,0.0,85,0.00,,,0.00,VWS V14.01,2013-02-25 04:27:00,
2013-02-24 23:30:00,28.3,24.4,30.03,SSE,158,0.0,0.0,85,0.00,,,0.00,VWS V14.01,2013-02-25 04:30:00,
2013-02-24 23:32:00,28.5,25.1,30.03,SSW,202,0.0,0.0,87,0.00,,,0.00,VWS V14.01,2013-02-25 04:32:00,
2013-02-24 23:37:00,28.5,26.2,30.03,SSW,202,0.0,0.0,91,0.00,,,0.00,VWS V14.01,2013-02-25 04:37:00,
2013-02-24 23:42:00,28.5,26.2,30.00,SSW,202,0.0,0.0,91,0.00,,,0.00,VWS V14.01,2013-02-25 04:42:00,
2013-02-24 23:45:00,27.2,25.5,30.00,SSW,202,0.0,0.0,93,0.00,,,0.00,VWS V14.01,2013-02-25 04:45:00,
2013-02-24 23:47:00,28.3,26.0,30.00,SW,225,0.0,0.0,91,0.00,,,0.00,VWS V14.01,2013-02-25 04:47:00,
2013-02-24 23:52:00,28.0,25.7,30.00,SSW,202,0.0,0.0,91,0.00,,,0.00,VWS V14.01,2013-02-25 04:52:00,
2013-02-24 23:57:00,27.8,25.2,30.03,SSW,202,0.0,0.0,90,0.00,,,0.00,VWS V14.01,2013-02-25 04:57:00,